Time;durP1;ratioP1;P1;durP2;ratioP2;P2;SDS_P1;SDS_P2;PMS_P1;PMS_P2;Temp;Humidity;BMP_temperature;BMP_pressure;BME280_temperature;BME280_humidity;BME280_pressure;Samples;Min_cycle;Max_cycle;Signal;HPM_P1;HPM_P2
2022/09/02 00:01:51;;;;;;;4.20;0.57;;;;;;;;;;5092034;28;20137;-79
2022/09/02 00:04:19;;;;;;;6.38;0.65;;;;;;;;;;5090411;28;20334;-79
2022/09/02 00:06:46;;;;;;;4.22;0.45;;;;;;;;;;5091900;28;20442;-79
2022/09/02 00:09:13;;;;;;;1.42;0.50;;;;;;;;;;5091875;28;20063;-79
2022/09/02 00:11:40;;;;;;;1.83;0.50;;;;;;;;;;5091621;28;20020;-79
2022/09/02 00:14:09;;;;;;;6.18;0.52;;;;;;;;;;5091921;28;20055;-79
2022/09/02 00:16:36;;;;;;;0.73;0.50;;;;;;;;;;5094017;28;20051;-79
2022/09/02 00:19:02;;;;;;;3.67;0.80;;;;;;;;;;5097416;28;20039;-79
2022/09/02 00:21:28;;;;;;;2.53;0.50;;;;;;;;;;5115838;28;20026;-79
2022/09/02 00:23:54;;;;;;;1.88;0.47;;;;;;;;;;5115506;28;20049;-79
2022/09/02 00:26:21;;;;;;;1.95;0.50;;;;;;;;;;5115414;28;20074;-79
2022/09/02 00:28:47;;;;;;;7.22;0.60;;;;;;;;;;5114153;28;20023;-79
2022/09/02 00:31:14;;;;;;;1.75;0.57;;;;;;;;;;5115665;28;20031;-79
2022/09/02 00:33:40;;;;;;;2.80;0.57;;;;;;;;;;5115411;28;20484;-79
2022/09/02 00:36:07;;;;;;;3.53;0.50;;;;;;;;;;5113826;28;20429;-79
2022/09/02 00:38:34;;;;;;;1.75;0.47;;;;;;;;;;5115407;28;20012;-79
2022/09/02 00:41:01;;;;;;;0.65;0.40;;;;;;;;;;5115409;28;20016;-79
2022/09/02 00:43:42;;;;;;;1.08;0.50;;;;;;;;;;5115315;28;20065;-79
2022/09/02 00:46:09;;;;;;;2.95;0.50;;;;;;;;;;5115170;28;20019;-79
2022/09/02 00:48:39;;;;;;;1.20;0.50;;;;;;;;;;5115145;28;20028;-79
2022/09/02 00:51:05;;;;;;;1.35;0.50;;;;;;;;;;5114880;28;20027;-79
2022/09/02 00:53:31;;;;;;;2.25;0.60;;;;;;;;;;5114907;28;20385;-79
2022/09/02 00:55:58;;;;;;;3.05;0.63;;;;;;;;;;5115504;28;20047;-79
2022/09/02 00:58:26;;;;;;;3.75;0.40;;;;;;;;;;5115146;28;20453;-79
2022/09/02 01:00:57;;;;;;;2.75;0.50;;;;;;;;;;5115069;28;20450;-79
2022/09/02 01:03:24;;;;;;;1.27;0.50;;;;;;;;;;5114793;28;20094;-79
2022/09/02 01:05:51;;;;;;;3.33;0.50;;;;;;;;;;5114944;28;20026;-79
2022/09/02 01:08:19;;;;;;;1.17;0.60;;;;;;;;;;5114735;28;20057;-79
2022/09/02 01:10:46;;;;;;;1.88;0.60;;;;;;;;;;5114514;28;20055;-79
2022/09/02 01:13:15;;;;;;;5.28;0.60;;;;;;;;;;5114534;28;20024;-78
2022/09/02 01:15:43;;;;;;;2.90;0.52;;;;;;;;;;5114570;28;20401;-79
2022/09/02 01:18:12;;;;;;;2.88;0.40;;;;;;;;;;5114514;28;20023;-79
2022/09/02 01:20:38;;;;;;;4.22;0.40;;;;;;;;;;5114385;28;20026;-79
2022/09/02 01:23:04;;;;;;;2.40;0.43;;;;;;;;;;5114402;28;20055;-79
2022/09/02 01:25:32;;;;;;;4.50;0.50;;;;;;;;;;5114343;28;20572;-79
2022/09/02 01:27:59;;;;;;;5.72;0.60;;;;;;;;;;5114245;28;20023;-79
2022/09/02 01:30:25;;;;;;;0.88;0.43;;;;;;;;;;5114399;28;20485;-79
2022/09/02 01:32:52;;;;;;;1.55;0.50;;;;;;;;;;5114266;28;20388;-79
2022/09/02 01:35:18;;;;;;;1.52;0.60;;;;;;;;;;5114063;28;20050;-79
2022/09/02 01:37:45;;;;;;;2.67;0.60;;;;;;;;;;5113917;28;20023;-79
2022/09/02 01:40:13;;;;;;;5.63;0.60;;;;;;;;;;5108531;28;20828;-79
2022/09/02 01:42:39;;;;;;;2.17;0.73;;;;;;;;;;5093796;28;20031;-79
2022/09/02 01:45:06;;;;;;;2.70;0.50;;;;;;;;;;5093600;28;20028;-79
2022/09/02 01:47:32;;;;;;;2.13;0.40;;;;;;;;;;5093466;28;20051;-79
2022/09/02 01:49:59;;;;;;;1.08;0.50;;;;;;;;;;5092148;28;20039;-79
2022/09/02 01:52:26;;;;;;;1.33;0.47;;;;;;;;;;5093828;28;20024;-79
2022/09/02 01:54:53;;;;;;;2.70;0.40;;;;;;;;;;5092039;28;20335;-79
2022/09/02 01:57:19;;;;;;;1.73;0.40;;;;;;;;;;5093469;28;20020;-79
2022/09/02 01:59:45;;;;;;;0.95;0.50;;;;;;;;;;5093505;28;20120;-79
2022/09/02 02:02:12;;;;;;;5.00;0.47;;;;;;;;;;5093383;28;20127;-79
2022/09/02 02:04:38;;;;;;;1.40;0.40;;;;;;;;;;5093437;28;20446;-79
2022/09/02 02:07:04;;;;;;;2.85;0.40;;;;;;;;;;5093222;28;20035;-79
2022/09/02 02:09:30;;;;;;;5.00;0.45;;;;;;;;;;5093130;28;20157;-79
2022/09/02 02:11:57;;;;;;;0.60;0.32;;;;;;;;;;5093148;28;20028;-79
2022/09/02 02:14:23;;;;;;;1.67;0.60;;;;;;;;;;5093135;28;20077;-79
2022/09/02 02:16:49;;;;;;;1.67;0.50;;;;;;;;;;5092805;28;20024;-79
2022/09/02 02:19:15;;;;;;;1.63;0.50;;;;;;;;;;5097179;28;20094;-80
2022/09/02 02:21:41;;;;;;;3.53;0.68;;;;;;;;;;5113365;28;20423;-79
2022/09/02 02:24:08;;;;;;;2.00;0.50;;;;;;;;;;5113333;28;20462;-79
2022/09/02 02:26:35;;;;;;;0.52;0.30;;;;;;;;;;5113255;28;20023;-79
2022/09/02 02:29:01;;;;;;;4.82;0.63;;;;;;;;;;5113221;28;20031;-79
2022/09/02 02:31:27;;;;;;;3.67;0.68;;;;;;;;;;5113199;28;20373;-79
2022/09/02 02:33:53;;;;;;;3.53;0.60;;;;;;;;;;5112929;28;20469;-79
2022/09/02 02:36:19;;;;;;;5.30;0.77;;;;;;;;;;5113027;28;20050;-79
2022/09/02 02:38:46;;;;;;;4.40;0.50;;;;;;;;;;5112518;28;20016;-79
2022/09/02 02:41:13;;;;;;;0.77;0.38;;;;;;;;;;5113209;28;20051;-79
2022/09/02 02:43:39;;;;;;;0.57;0.35;;;;;;;;;;5113023;28;20034;-79
2022/09/02 02:46:06;;;;;;;2.55;0.60;;;;;;;;;;5112972;28;20030;-79
2022/09/02 02:48:33;;;;;;;1.10;0.47;;;;;;;;;;5112614;28;20026;-79
2022/09/02 02:51:00;;;;;;;2.08;0.70;;;;;;;;;;5112808;28;20027;-79
2022/09/02 02:53:28;;;;;;;2.47;0.50;;;;;;;;;;5112601;28;20051;-79
2022/09/02 02:55:54;;;;;;;3.33;0.40;;;;;;;;;;5111321;28;20020;-79
2022/09/02 02:58:20;;;;;;;3.65;0.50;;;;;;;;;;5112649;28;20026;-79
2022/09/02 03:00:46;;;;;;;2.42;0.60;;;;;;;;;;5112733;28;20475;-79
2022/09/02 03:03:18;;;;;;;3.90;0.43;;;;;;;;;;5095020;28;20032;-79
2022/09/02 03:05:44;;;;;;;4.60;0.70;;;;;;;;;;5092522;28;20073;-79
2022/09/02 03:08:11;;;;;;;2.50;0.70;;;;;;;;;;5092276;28;20028;-79
2022/09/02 03:10:39;;;;;;;1.95;0.47;;;;;;;;;;5092455;28;20402;-79
2022/09/02 03:13:05;;;;;;;2.35;0.50;;;;;;;;;;5092208;28;20024;-79
2022/09/02 03:15:32;;;;;;;1.52;0.50;;;;;;;;;;5090918;28;20024;-79
2022/09/02 03:17:58;;;;;;;2.85;0.50;;;;;;;;;;5092198;28;20483;-79
2022/09/02 03:20:24;;;;;;;2.85;0.50;;;;;;;;;;5091996;28;20483;-79
2022/09/02 03:22:50;;;;;;;2.35;0.60;;;;;;;;;;5091839;28;20067;-79
2022/09/02 03:25:19;;;;;;;2.42;0.60;;;;;;;;;;5092045;28;20051;-79
2022/09/02 03:27:46;;;;;;;1.65;0.50;;;;;;;;;;5092122;28;20027;-79
2022/09/02 03:30:14;;;;;;;1.63;0.60;;;;;;;;;;5091824;28;20432;-79
2022/09/02 03:32:40;;;;;;;3.00;0.60;;;;;;;;;;5091909;28;20035;-79
2022/09/02 03:35:08;;;;;;;1.00;0.40;;;;;;;;;;5092128;28;20471;-79
2022/09/02 03:37:35;;;;;;;2.78;0.50;;;;;;;;;;5091969;28;20070;-79
2022/09/02 03:40:09;;;;;;;4.22;0.52;;;;;;;;;;5092263;28;20483;-79
2022/09/02 03:42:36;;;;;;;0.57;0.38;;;;;;;;;;5092142;28;20016;-79
2022/09/02 03:45:03;;;;;;;3.00;0.50;;;;;;;;;;5091807;28;20148;-79
2022/09/02 03:47:29;;;;;;;1.48;0.45;;;;;;;;;;5091497;28;20024;-79
2022/09/02 03:49:56;;;;;;;2.25;0.40;;;;;;;;;;5091120;28;20024;-79
2022/09/02 03:52:22;;;;;;;0.70;0.30;;;;;;;;;;5095416;28;20036;-79
2022/09/02 03:54:48;;;;;;;1.42;0.55;;;;;;;;;;5095128;28;20028;-79
2022/09/02 03:57:14;;;;;;;4.57;0.80;;;;;;;;;;5095080;28;20416;-79
2022/09/02 03:59:40;;;;;;;1.17;0.50;;;;;;;;;;5095103;28;20111;-79
2022/09/02 04:02:06;;;;;;;3.05;0.50;;;;;;;;;;5095184;28;20012;-79
2022/09/02 04:04:32;;;;;;;2.45;0.50;;;;;;;;;;5094710;28;20103;-79
2022/09/02 04:06:59;;;;;;;2.35;0.60;;;;;;;;;;5095222;28;20466;-79
2022/09/02 04:09:25;;;;;;;1.83;0.70;;;;;;;;;;5094690;28;20043;-79
2022/09/02 04:11:51;;;;;;;2.83;0.55;;;;;;;;;;5094749;28;20020;-79
2022/09/02 04:14:17;;;;;;;1.75;0.50;;;;;;;;;;5094982;28;20099;-79
2022/09/02 04:16:43;;;;;;;5.75;0.80;;;;;;;;;;5094828;28;20491;-79
2022/09/02 04:19:09;;;;;;;0.93;0.50;;;;;;;;;;5094748;28;20012;-79
2022/09/02 04:21:37;;;;;;;1.83;0.50;;;;;;;;;;5094973;28;20020;-79
2022/09/02 04:24:03;;;;;;;1.35;0.40;;;;;;;;;;5093279;28;20653;-79
2022/09/02 04:26:29;;;;;;;1.10;0.50;;;;;;;;;;5094509;28;20430;-79
2022/09/02 04:28:56;;;;;;;2.00;0.45;;;;;;;;;;5094454;28;20024;-79
2022/09/02 04:31:24;;;;;;;1.55;0.43;;;;;;;;;;5094566;28;20047;-79
2022/09/02 04:33:50;;;;;;;1.02;0.50;;;;;;;;;;5094515;28;20020;-79
2022/09/02 04:36:17;;;;;;;7.60;0.70;;;;;;;;;;5094152;28;20514;-79
2022/09/02 04:38:43;;;;;;;3.97;0.40;;;;;;;;;;5092896;28;20505;-79
2022/09/02 04:41:11;;;;;;;3.67;0.50;;;;;;;;;;5094241;28;20085;-79
2022/09/02 04:43:37;;;;;;;2.40;0.60;;;;;;;;;;5094447;28;20111;-79
2022/09/02 04:46:08;;;;;;;3.35;0.60;;;;;;;;;;5094046;28;20035;-79
2022/09/02 04:48:35;;;;;;;6.05;0.60;;;;;;;;;;5094170;28;20032;-79
2022/09/02 04:51:05;;;;;;;3.25;0.63;;;;;;;;;;5094064;28;20036;-79
2022/09/02 04:53:32;;;;;;;0.88;0.50;;;;;;;;;;5094135;28;20450;-79
2022/09/02 04:55:58;;;;;;;4.60;0.55;;;;;;;;;;5093929;28;20023;-79
2022/09/02 04:58:24;;;;;;;1.35;0.70;;;;;;;;;;5093653;28;20470;-79
2022/09/02 05:00:50;;;;;;;1.48;0.40;;;;;;;;;;5093558;28;20031;-79
2022/09/02 05:03:18;;;;;;;2.85;0.80;;;;;;;;;;5093150;28;20028;-79
2022/09/02 05:05:44;;;;;;;1.55;0.55;;;;;;;;;;5093704;28;20031;-79
2022/09/02 05:08:11;;;;;;;1.60;0.50;;;;;;;;;;5093562;28;20386;-79
2022/09/02 05:10:39;;;;;;;3.22;0.60;;;;;;;;;;5093886;28;20093;-79
2022/09/02 05:13:05;;;;;;;7.15;0.40;;;;;;;;;;5093538;28;20032;-79
2022/09/02 05:15:32;;;;;;;4.60;0.60;;;;;;;;;;5093590;28;20035;-79
2022/09/02 05:17:58;;;;;;;2.97;0.65;;;;;;;;;;5093438;28;20024;-79
2022/09/02 05:20:24;;;;;;;4.65;0.60;;;;;;;;;;5093024;28;20016;-79
2022/09/02 05:22:51;;;;;;;1.92;0.63;;;;;;;;;;5093339;28;20509;-79
2022/09/02 05:25:17;;;;;;;10.45;1.15;;;;;;;;;;5093422;28;20432;-79
2022/09/02 05:27:43;;;;;;;11.25;0.63;;;;;;;;;;5093092;28;20024;-79
2022/09/02 05:30:09;;;;;;;3.00;0.60;;;;;;;;;;5093277;28;20027;-78
2022/09/02 05:32:35;;;;;;;3.20;0.82;;;;;;;;;;5109067;28;20047;-79
2022/09/02 05:35:01;;;;;;;1.40;0.57;;;;;;;;;;5113895;28;20039;-79
2022/09/02 05:37:28;;;;;;;4.85;0.70;;;;;;;;;;5113544;28;20114;-79
2022/09/02 05:39:54;;;;;;;8.65;0.63;;;;;;;;;;5110336;28;20016;-79
2022/09/02 05:42:20;;;;;;;7.28;0.70;;;;;;;;;;5093125;28;20032;-79
2022/09/02 05:44:47;;;;;;;5.47;0.60;;;;;;;;;;5092885;28;20020;-79
2022/09/02 05:47:13;;;;;;;2.45;0.70;;;;;;;;;;5092731;28;20107;-79
2022/09/02 05:49:39;;;;;;;6.72;0.50;;;;;;;;;;5093117;28;20474;-79
2022/09/02 05:52:08;;;;;;;6.72;0.65;;;;;;;;;;5074664;28;20032;-79
2022/09/02 05:54:36;;;;;;;2.35;0.65;;;;;;;;;;5092915;28;20425;-79
2022/09/02 05:57:05;;;;;;;0.93;0.40;;;;;;;;;;5092846;28;20157;-79
2022/09/02 05:59:37;;;;;;;7.75;0.70;;;;;;;;;;5092764;28;20030;-79
2022/09/02 06:02:03;;;;;;;;;;;;;;;;;;5074546;28;20020;-79
2022/09/02 06:04:30;;;;;;;6.50;0.57;;;;;;;;;;5092642;28;19999;-79
2022/09/02 06:06:57;;;;;;;2.55;0.40;;;;;;;;;;5092640;28;20027;-79
2022/09/02 06:09:23;;;;;;;1.20;0.50;;;;;;;;;;5092386;28;20397;-79
2022/09/02 06:11:50;;;;;;;1.85;0.45;;;;;;;;;;5074457;28;20420;-79
2022/09/02 06:14:17;;;;;;;5.45;0.47;;;;;;;;;;5091497;28;20030;-79
2022/09/02 06:16:44;;;;;;;1.67;0.40;;;;;;;;;;5092638;28;20016;-79
2022/09/02 06:19:10;;;;;;;3.90;0.60;;;;;;;;;;5092234;28;20012;-79
2022/09/02 06:21:37;;;;;;;3.10;0.77;;;;;;;;;;5092397;28;20077;-79
2022/09/02 06:24:07;;;;;;;3.35;0.68;;;;;;;;;;5092094;28;20377;-79
2022/09/02 06:26:33;;;;;;;5.60;0.80;;;;;;;;;;5092334;28;20039;-79
2022/09/02 06:28:59;;;;;;;8.48;0.73;;;;;;;;;;5092074;28;20020;-79
2022/09/02 06:31:25;;;;;;;6.88;0.63;;;;;;;;;;5097139;28;20034;-79
2022/09/02 06:33:53;;;;;;;1.42;0.63;;;;;;;;;;5112388;28;20042;-79
2022/09/02 06:36:19;;;;;;;1.17;0.40;;;;;;;;;;5094396;28;20377;-79
2022/09/02 06:38:47;;;;;;;2.75;0.50;;;;;;;;;;5094502;28;20473;-79
2022/09/02 06:41:15;;;;;;;5.85;1.25;;;;;;;;;;5112979;28;20019;-79
2022/09/02 06:43:42;;;;;;;2.88;0.70;;;;;;;;;;5113075;28;20036;-79
2022/09/02 06:46:08;;;;;;;2.00;0.60;;;;;;;;;;5112857;28;20019;-79
2022/09/02 06:48:34;;;;;;;7.40;0.75;;;;;;;;;;5094471;28;20023;-78
2022/09/02 06:51:00;;;;;;;6.57;0.80;;;;;;;;;;5112798;28;20054;-79
2022/09/02 06:53:26;;;;;;;4.60;0.60;;;;;;;;;;5112591;28;20031;-79
2022/09/02 06:55:52;;;;;;;2.17;0.60;;;;;;;;;;5112794;28;20453;-79
2022/09/02 06:58:22;;;;;;;3.65;0.60;;;;;;;;;;5112995;28;20020;-79
2022/09/02 07:00:48;;;;;;;6.13;0.60;;;;;;;;;;5112721;28;20442;-79
2022/09/02 07:06:09;;;;;;;4.10;0.73;;;;;;;;;;5092305;28;20422;-78
2022/09/02 07:08:39;;;;;;;2.38;0.50;;;;;;;;;;5091740;28;20092;-79
2022/09/02 07:11:06;;;;;;;3.58;0.65;;;;;;;;;;5091398;28;20032;-79
2022/09/02 07:13:33;;;;;;;4.13;0.50;;;;;;;;;;5072808;28;20102;-79
2022/09/02 07:15:59;;;;;;;4.78;0.57;;;;;;;;;;5091308;28;20043;-79
2022/09/02 07:18:25;;;;;;;2.63;0.60;;;;;;;;;;5091244;28;20069;-79
2022/09/02 07:20:52;;;;;;;3.30;0.52;;;;;;;;;;5091079;28;20048;-79
2022/09/02 07:23:18;;;;;;;4.18;0.70;;;;;;;;;;5091267;28;20438;-78
2022/09/02 07:25:44;;;;;;;3.83;0.60;;;;;;;;;;5094019;28;20099;-79
2022/09/02 07:28:10;;;;;;;4.70;0.60;;;;;;;;;;5095431;28;20024;-79
2022/09/02 07:30:38;;;;;;;7.00;0.80;;;;;;;;;;5076914;28;20027;-79
2022/09/02 07:33:04;;;;;;;5.35;0.90;;;;;;;;;;5111057;28;20354;-79
2022/09/02 07:35:30;;;;;;;2.10;0.80;;;;;;;;;;5116091;28;20016;-79
2022/09/02 07:37:56;;;;;;;6.70;1.25;;;;;;;;;;5115915;28;20042;-79
2022/09/02 07:40:23;;;;;;;5.38;0.90;;;;;;;;;;5115788;28;20023;-79
2022/09/02 07:42:49;;;;;;;4.63;0.98;;;;;;;;;;5115505;28;20023;-79
2022/09/02 07:45:15;;;;;;;1.83;0.90;;;;;;;;;;5115672;28;20108;-79
2022/09/02 07:47:41;;;;;;;2.85;1.00;;;;;;;;;;5115623;28;20050;-79
2022/09/02 07:50:07;;;;;;;3.92;1.02;;;;;;;;;;5115514;28;20474;-79
2022/09/02 07:52:33;;;;;;;4.93;0.93;;;;;;;;;;5115720;28;20081;-79
2022/09/02 07:55:00;;;;;;;3.67;0.90;;;;;;;;;;5097334;28;20019;-79
2022/09/02 07:57:26;;;;;;;6.43;0.80;;;;;;;;;;5115583;28;20111;-79
2022/09/02 07:59:52;;;;;;;2.78;1.00;;;;;;;;;;5115685;28;20168;-79
2022/09/02 08:02:18;;;;;;;6.47;1.00;;;;;;;;;;5096868;28;20020;-79
2022/09/02 08:04:45;;;;;;;4.78;0.93;;;;;;;;;;5115661;28;20019;-79
2022/09/02 08:07:11;;;;;;;7.43;0.70;;;;;;;;;;5115118;28;20099;-79
2022/09/02 08:09:38;;;;;;;4.13;0.80;;;;;;;;;;5115171;28;20093;-79
2022/09/02 08:12:04;;;;;;;4.82;0.80;;;;;;;;;;5115314;28;20020;-79
2022/09/02 08:14:30;;;;;;;4.65;1.10;;;;;;;;;;5115432;28;20065;-79
2022/09/02 08:16:57;;;;;;;7.78;1.00;;;;;;;;;;5115054;28;20355;-79
2022/09/02 08:19:25;;;;;;;4.85;0.80;;;;;;;;;;5114983;28;20081;-79
2022/09/02 08:21:51;;;;;;;6.32;0.88;;;;;;;;;;5115054;28;20062;-79
2022/09/02 08:24:17;;;;;;;4.43;1.13;;;;;;;;;;5115048;28;20034;-79
2022/09/02 08:26:43;;;;;;;2.60;0.80;;;;;;;;;;5114800;28;20478;-79
2022/09/02 08:29:09;;;;;;;12.73;1.35;;;;;;;;;;5114735;28;20027;-79
2022/09/02 08:31:38;;;;;;;3.78;0.82;;;;;;;;;;5114751;28;20019;-79
2022/09/02 08:34:04;;;;;;;7.32;1.00;;;;;;;;;;5114269;28;20019;-79
2022/09/02 08:36:30;;;;;;;5.53;0.77;;;;;;;;;;5114047;28;20024;-79
2022/09/02 08:38:56;;;;;;;4.75;0.82;;;;;;;;;;5114604;28;20024;-79
2022/09/02 08:41:24;;;;;;;5.05;0.70;;;;;;;;;;5114584;28;20077;-79
2022/09/02 08:43:56;;;;;;;7.30;1.02;;;;;;;;;;5114462;28;20466;-79
2022/09/02 08:46:25;;;;;;;3.10;1.48;;;;;;;;;;5114468;28;20042;-79
2022/09/02 08:48:56;;;;;;;5.60;0.80;;;;;;;;;;5114256;28;20544;-79
2022/09/02 08:51:46;;;;;;;2.47;0.88;;;;;;;;;;5114841;28;20134;-79
2022/09/02 08:54:12;;;;;;;5.13;1.00;;;;;;;;;;5114764;28;20035;-79
2022/09/02 08:56:38;;;;;;;10.38;1.27;;;;;;;;;;5114457;28;20023;-79
2022/09/02 08:59:05;;;;;;;9.45;1.00;;;;;;;;;;5114505;28;20134;-79
2022/09/02 09:01:31;;;;;;;4.63;0.98;;;;;;;;;;5111168;28;20024;-79
2022/09/02 09:04:16;;;;;;;5.97;1.30;;;;;;;;;;5094400;28;20070;-79
2022/09/02 09:06:52;;;;;;;8.85;1.60;;;;;;;;;;5094373;28;20024;-79
2022/09/02 09:09:37;;;;;;;6.32;2.28;;;;;;;;;;5094429;28;20122;-79
2022/09/02 09:12:06;;;;;;;11.45;3.47;;;;;;;;;;5094044;28;20016;-79
2022/09/02 09:14:49;;;;;;;8.85;2.53;;;;;;;;;;5094059;28;20035;-79
2022/09/02 09:17:27;;;;;;;4.28;1.60;;;;;;;;;;5094123;28;20039;-79
2022/09/02 09:19:57;;;;;;;2.85;1.30;;;;;;;;;;5093861;28;20533;-79
2022/09/02 09:22:29;;;;;;;5.97;1.35;;;;;;;;;;5093883;28;20030;-79
2022/09/02 09:24:56;;;;;;;7.30;1.60;;;;;;;;;;5093809;28;20039;-79
2022/09/02 09:27:23;;;;;;;2.50;1.15;;;;;;;;;;5094018;28;20489;-79
2022/09/02 09:29:50;;;;;;;4.70;1.80;;;;;;;;;;5093961;28;20031;-80
2022/09/02 09:32:27;;;;;;;21.27;9.65;;;;;;;;;;5098258;28;20035;-79
2022/09/02 09:34:56;;;;;;;13.40;5.38;;;;;;;;;;5114138;28;20089;-79
2022/09/02 09:37:37;;;;;;;7.72;2.17;;;;;;;;;;5114086;28;20076;-79
2022/09/02 09:40:24;;;;;;;5.63;1.40;;;;;;;;;;5109499;28;20073;-79
2022/09/02 09:43:05;;;;;;;3.25;1.48;;;;;;;;;;5093758;28;20130;-79
2022/09/02 09:45:32;;;;;;;5.60;1.58;;;;;;;;;;5093666;28;20112;-79
2022/09/02 09:48:17;;;;;;;8.13;1.33;;;;;;;;;;5093615;28;20149;-80
2022/09/02 09:50:44;;;;;;;4.18;1.38;;;;;;;;;;5093173;28;20030;-80
2022/09/02 09:53:14;;;;;;;6.57;1.30;;;;;;;;;;5093218;28;20024;-80
2022/09/02 09:55:51;;;;;;;8.57;1.38;;;;;;;;;;5093258;28;20058;-80
2022/09/02 09:58:18;;;;;;;3.03;1.35;;;;;;;;;;5092895;28;20024;-79
2022/09/02 10:00:44;;;;;;;9.50;1.50;;;;;;;;;;5093004;28;20020;-79
2022/09/02 10:03:18;;;;;;;7.10;1.50;;;;;;;;;;5093233;28;20032;-79
2022/09/02 10:05:44;;;;;;;5.00;1.30;;;;;;;;;;5093086;28;20024;-80
2022/09/02 10:08:16;;;;;;;7.10;1.35;;;;;;;;;;5092936;28;20020;-80
2022/09/02 10:10:55;;;;;;;3.38;1.20;;;;;;;;;;5074704;28;20085;-80
2022/09/02 10:13:31;;;;;;;4.88;1.23;;;;;;;;;;5093041;28;20051;-80
2022/09/02 10:16:00;;;;;;;3.97;1.30;;;;;;;;;;5092985;28;20038;-80
2022/09/02 10:18:41;;;;;;;4.75;1.70;;;;;;;;;;5093053;28;20060;-80
2022/09/02 10:21:13;;;;;;;3.17;1.10;;;;;;;;;;5112668;28;20074;-80
2022/09/02 10:23:39;;;;;;;;;;;;;;;;;;5113743;28;20023;-80
2022/09/02 10:26:11;;;;;;;4.15;1.45;;;;;;;;;;5113323;28;19964;-79
2022/09/02 10:28:44;;;;;;;3.78;1.10;;;;;;;;;;5113325;28;20051;-80
2022/09/02 10:31:16;;;;;;;4.78;1.55;;;;;;;;;;5113470;28;20030;-80
2022/09/02 10:33:51;;;;;;;6.80;1.27;;;;;;;;;;5113145;28;20096;-80
2022/09/02 10:36:26;;;;;;;2.72;1.15;;;;;;;;;;5113101;28;20358;-80
2022/09/02 10:38:53;;;;;;;3.83;1.27;;;;;;;;;;5112903;28;20381;-80
2022/09/02 10:41:41;;;;;;;3.38;1.23;;;;;;;;;;5113034;28;20027;-80
2022/09/02 10:44:08;;;;;;;6.60;1.15;;;;;;;;;;5112952;28;20047;-80
2022/09/02 10:46:41;;;;;;;3.45;1.20;;;;;;;;;;5094629;28;20033;-80
2022/09/02 10:49:15;;;;;;;7.18;1.30;;;;;;;;;;5094424;28;20481;-80
2022/09/02 10:51:40;;;;;;;1.92;1.20;;;;;;;;;;5113046;28;20119;-80
2022/09/02 10:54:12;;;;;;;8.60;1.55;;;;;;;;;;5112675;28;20100;-80
2022/09/02 10:56:39;;;;;;;;;;;;;;;;;;5094865;28;20023;-80
2022/09/02 10:59:11;;;;;;;6.40;1.40;;;;;;;;;;5112222;28;20369;-80
2022/09/02 11:01:48;;;;;;;6.47;1.20;;;;;;;;;;5108508;28;20095;-80
2022/09/02 11:04:21;;;;;;;6.38;1.55;;;;;;;;;;5092337;28;20096;-80
2022/09/02 11:06:49;;;;;;;2.08;1.20;;;;;;;;;;5092420;28;20466;-80
2022/09/02 11:09:26;;;;;;;4.70;1.42;;;;;;;;;;5092178;28;20047;-80
2022/09/02 11:11:56;;;;;;;5.13;1.30;;;;;;;;;;5092236;28;20028;-80
2022/09/02 11:14:25;;;;;;;5.18;1.50;;;;;;;;;;5092276;28;20056;-80
2022/09/02 11:16:54;;;;;;;7.10;1.20;;;;;;;;;;5092379;28;20043;-80
2022/09/02 11:19:33;;;;;;;6.30;1.10;;;;;;;;;;5092114;28;20021;-80
2022/09/02 11:22:15;;;;;;;2.95;1.30;;;;;;;;;;5092281;28;20026;-80
2022/09/02 11:24:46;;;;;;;4.40;1.10;;;;;;;;;;5092274;28;20024;-80
2022/09/02 11:27:32;;;;;;;8.18;1.35;;;;;;;;;;5092177;28;20028;-80
2022/09/02 11:30:04;;;;;;;7.20;1.13;;;;;;;;;;5074031;28;20358;-80
2022/09/02 11:32:30;;;;;;;3.17;1.00;;;;;;;;;;5092187;28;20028;-80
2022/09/02 11:34:58;;;;;;;10.80;1.13;;;;;;;;;;5092212;28;20028;-80
2022/09/02 11:37:26;;;;;;;4.28;1.15;;;;;;;;;;5092007;28;20172;-80
2022/09/02 11:39:57;;;;;;;8.25;1.35;;;;;;;;;;5094675;28;20446;-80
2022/09/02 11:42:31;;;;;;;4.47;1.10;;;;;;;;;;5112397;28;20111;-80
2022/09/02 11:45:00;;;;;;;4.50;1.25;;;;;;;;;;5112435;28;20023;-80
2022/09/02 11:47:28;;;;;;;3.45;1.13;;;;;;;;;;5112237;28;20032;-80
2022/09/02 11:50:03;;;;;;;6.93;1.20;;;;;;;;;;5093726;28;20443;-80
2022/09/02 11:52:32;;;;;;;6.13;1.20;;;;;;;;;;5112587;28;20035;-80
2022/09/02 11:55:03;;;;;;;5.13;1.20;;;;;;;;;;5112196;28;20032;-80
2022/09/02 11:57:31;;;;;;;2.25;1.13;;;;;;;;;;5112357;28;20020;-80
2022/09/02 11:59:57;;;;;;;7.82;1.50;;;;;;;;;;5112042;28;20335;-80
2022/09/02 12:02:42;;;;;;;4.68;1.17;;;;;;;;;;5112104;28;20043;-80
2022/09/02 12:05:30;;;;;;;6.95;1.30;;;;;;;;;;5112010;28;20034;-80
2022/09/02 12:07:56;;;;;;;2.30;1.45;;;;;;;;;;5093811;28;20381;-81
2022/09/02 12:10:41;;;;;;;8.98;1.20;;;;;;;;;;5112119;28;20047;-80
2022/09/02 12:13:08;;;;;;;1.33;0.90;;;;;;;;;;5115048;28;20020;-80
2022/09/02 12:15:34;;;;;;;6.88;1.13;;;;;;;;;;5115604;28;20074;-80
2022/09/02 12:18:10;;;;;;;4.72;1.20;;;;;;;;;;5115907;28;20454;-80
2022/09/02 12:20:37;;;;;;;1.42;1.10;;;;;;;;;;5100416;28;20089;-80
2022/09/02 12:23:03;;;;;;;3.55;1.02;;;;;;;;;;5095516;28;20023;-80
2022/09/02 12:25:32;;;;;;;2.78;1.10;;;;;;;;;;5076939;28;20509;-80
2022/09/02 12:28:14;;;;;;;1.85;1.17;;;;;;;;;;5095029;28;20378;-80
2022/09/02 12:31:13;;;;;;;2.67;1.10;;;;;;;;;;5095127;28;20481;-80
2022/09/02 12:33:50;;;;;;;3.30;1.10;;;;;;;;;;5094916;28;20028;-80
2022/09/02 12:36:35;;;;;;;9.70;1.20;;;;;;;;;;5095083;28;20028;-80
2022/09/02 12:39:19;;;;;;;4.80;1.67;;;;;;;;;;5095324;28;20021;-81
2022/09/02 12:41:49;;;;;;;1.80;1.00;;;;;;;;;;5095017;28;20020;-80
2022/09/02 12:44:15;;;;;;;2.38;1.00;;;;;;;;;;5094926;28;20111;-80
2022/09/02 12:46:44;;;;;;;2.35;1.02;;;;;;;;;;5094962;28;20064;-81
2022/09/02 12:49:27;;;;;;;1.88;1.20;;;;;;;;;;5094724;28;20059;-80
2022/09/02 12:51:56;;;;;;;2.38;1.10;;;;;;;;;;5095069;28;20102;-80
2022/09/02 12:54:40;;;;;;;1.70;1.10;;;;;;;;;;5094933;28;20101;-81
2022/09/02 12:57:07;;;;;;;2.28;1.00;;;;;;;;;;5094773;28;20012;-80
2022/09/02 12:59:38;;;;;;;2.55;1.10;;;;;;;;;;5094617;28;20481;-80
2022/09/02 13:02:16;;;;;;;3.90;1.23;;;;;;;;;;5094474;28;20466;-81
2022/09/02 13:04:49;;;;;;;2.13;1.00;;;;;;;;;;5094496;28;20420;-81
2022/09/02 13:07:18;;;;;;;2.30;1.10;;;;;;;;;;5076460;28;20157;-81
2022/09/02 13:09:47;;;;;;;2.40;1.30;;;;;;;;;;5094463;28;20062;-81
2022/09/02 13:12:26;;;;;;;1.38;1.17;;;;;;;;;;5094330;28;20034;-81
2022/09/02 13:15:02;;;;;;;6.22;1.10;;;;;;;;;;5094405;28;20492;-81
2022/09/02 13:17:49;;;;;;;1.83;1.05;;;;;;;;;;5094359;28;20078;-81
2022/09/02 13:20:24;;;;;;;2.28;1.10;;;;;;;;;;5043743;28;20407;-81
2022/09/02 13:22:53;;;;;;;1.67;0.95;;;;;;;;;;5093721;28;20057;-81
2022/09/02 13:25:19;;;;;;;4.53;0.90;;;;;;;;;;5094142;28;20027;-81
2022/09/02 13:27:57;;;;;;;1.63;1.00;;;;;;;;;;5094262;28;20077;-80
2022/09/02 13:30:43;;;;;;;1.20;1.00;;;;;;;;;;5093922;28;20137;-81
2022/09/02 13:33:10;;;;;;;1.85;0.93;;;;;;;;;;5076638;28;20036;-81
2022/09/02 13:35:37;;;;;;;6.32;1.02;;;;;;;;;;5094077;28;20086;-81
2022/09/02 13:38:04;;;;;;;2.22;1.15;;;;;;;;;;5093724;28;20016;-80
2022/09/02 13:40:34;;;;;;;5.22;1.10;;;;;;;;;;5093758;28;20021;-80
2022/09/02 13:43:15;;;;;;;9.35;1.60;;;;;;;;;;5075661;28;20539;-80
2022/09/02 13:45:42;;;;;;;8.77;1.20;;;;;;;;;;5093902;28;20070;-81
2022/09/02 13:48:10;;;;;;;3.55;1.10;;;;;;;;;;5093591;28;20102;-81
2022/09/02 13:50:36;;;;;;;2.50;1.10;;;;;;;;;;5093590;28;20030;-81
2022/09/02 13:53:05;;;;;;;3.38;1.17;;;;;;;;;;5093434;28;20028;-81
2022/09/02 13:55:32;;;;;;;2.92;1.17;;;;;;;;;;5092981;28;20503;-81
2022/09/02 13:58:00;;;;;;;2.22;1.52;;;;;;;;;;5092787;28;20028;-81
2022/09/02 14:00:31;;;;;;;2.40;1.20;;;;;;;;;;5093315;28;20024;-81
2022/09/02 14:02:58;;;;;;;;;;;;;;;;;;5094002;28;20378;-81
2022/09/02 14:05:25;;;;;;;2.85;1.25;;;;;;;;;;5093620;28;19943;-81
2022/09/02 14:07:53;;;;;;;6.68;1.35;;;;;;;;;;5093242;28;20024;-81
2022/09/02 14:10:21;;;;;;;2.13;1.15;;;;;;;;;;5093197;28;20443;-81
2022/09/02 14:12:47;;;;;;;3.78;1.30;;;;;;;;;;5093318;28;20045;-81
2022/09/02 14:15:15;;;;;;;5.22;1.52;;;;;;;;;;5093227;28;20027;-81
2022/09/02 14:17:41;;;;;;;5.28;1.35;;;;;;;;;;5093034;28;20020;-81
2022/09/02 14:20:25;;;;;;;5.30;1.40;;;;;;;;;;5093338;28;20048;-81
2022/09/02 14:22:55;;;;;;;6.32;1.45;;;;;;;;;;5092906;28;20032;-80
2022/09/02 14:25:21;;;;;;;8.05;1.42;;;;;;;;;;5092845;28;20469;-81
2022/09/02 14:27:51;;;;;;;3.42;1.48;;;;;;;;;;5092771;28;20035;-81
2022/09/02 14:30:37;;;;;;;2.35;1.50;;;;;;;;;;5092718;28;20473;-81
2022/09/02 14:33:15;;;;;;;8.05;1.60;;;;;;;;;;5092567;28;20060;-81
2022/09/02 14:35:42;;;;;;;4.43;1.52;;;;;;;;;;5092307;28;20024;-81
2022/09/02 14:38:21;;;;;;;3.95;1.25;;;;;;;;;;5074557;28;20459;-81
2022/09/02 14:40:47;;;;;;;3.30;1.40;;;;;;;;;;5092543;28;20047;-81
2022/09/02 14:43:14;;;;;;;4.40;1.40;;;;;;;;;;5092647;28;20062;-81
2022/09/02 14:45:43;;;;;;;6.65;1.95;;;;;;;;;;5074272;28;20390;-81
2022/09/02 14:48:14;;;;;;;4.15;1.50;;;;;;;;;;5074437;28;20381;-81
2022/09/02 14:50:41;;;;;;;2.60;1.25;;;;;;;;;;5093022;28;20039;-81
2022/09/02 14:53:08;;;;;;;7.03;1.50;;;;;;;;;;5092612;28;20053;-81
2022/09/02 14:55:44;;;;;;;6.50;1.30;;;;;;;;;;5092471;28;20067;-81
2022/09/02 14:58:10;;;;;;;2.50;1.30;;;;;;;;;;5092504;28;20043;-81